Time;durP1;ratioP1;P1;durP2;ratioP2;P2;SDS_P1;SDS_P2;PMS_P1;PMS_P2;Temp;Humidity;BMP_temperature;BMP_pressure;BME280_temperature;BME280_humidity;BME280_pressure;Samples;Min_cycle;Max_cycle;Signal;HPM_P1;HPM_P2
2022/05/17 00:39:33;;;;;;;7.18;5.00;;;21.70;90.90;;;;;;6221875;22;20027;-81
2022/05/17 01:29:07;;;;;;;5.53;4.22;;;22.00;91.00;;;;;;6033791;23;20042;-78
2022/05/17 01:32:12;;;;;;;5.85;5.25;;;22.00;91.00;;;;;;6107585;23;19984;-80
2022/05/17 01:39:11;;;;;;;8.15;4.90;;;22.00;90.90;;;;;;6264237;22;20034;-78
2022/05/17 01:41:42;;;;;;;7.38;5.60;;;21.90;91.20;;;;;;6223241;23;20036;-82
2022/05/17 02:05:04;;;;;;;11.05;8.27;;;21.70;91.50;;;;;;6135178;23;20040;-82
2022/05/17 02:07:57;;;;;;;10.45;7.63;;;21.50;91.90;;;;;;6127180;23;20010;-83
2022/05/17 02:21:35;;;;;;;9.27;7.30;;;21.40;91.90;;;;;;6252424;23;20015;-82
2022/05/17 02:27:45;;;;;;;10.63;8.50;;;21.20;91.70;;;;;;6251619;23;20023;-82
2022/05/17 02:37:24;;;;;;;6.13;5.53;;;21.30;91.60;;;;;;6247427;23;20023;-78
2022/05/17 02:40:17;;;;;;;7.07;6.05;;;21.40;91.60;;;;;;6221475;23;20011;-81
2022/05/17 02:53:07;;;;;;;6.45;5.03;;;21.60;91.40;;;;;;6247956;22;20073;-83
2022/05/17 02:55:39;;;;;;;7.25;5.60;;;21.60;91.30;;;;;;6250779;23;20087;-80
2022/05/17 02:59:12;;;;;;;7.15;5.32;;;21.60;91.20;;;;;;6222327;23;20036;-79
2022/05/17 03:02:53;;;;;;;5.85;5.25;;;21.60;91.40;;;;;;6234548;23;20000;-79
2022/05/17 03:08:55;;;;;;;5.30;4.80;;;21.60;91.30;;;;;;6247752;23;20015;-79
2022/05/17 03:12:02;;;;;;;6.75;5.50;;;21.60;91.30;;;;;;6221695;23;20015;-79
2022/05/17 03:42:38;;;;;;;;;;;;;;;;;;;;;
2022/05/17 05:03:36;;;;;;;7.07;6.38;;;21.40;91.30;;;;;;6233781;22;20035;-78
2022/05/17 05:13:20;;;;;;;7.75;6.50;;;21.50;90.50;;;;;;6250035;23;20437;-77
2022/05/17 05:16:35;;;;;;;7.90;6.60;;;21.50;90.50;;;;;;6214298;23;20000;-77
2022/05/17 05:26:49;;;;;;;7.97;5.90;;;21.50;90.50;;;;;;6247676;23;20031;-73
2022/05/17 05:29:51;;;;;;;8.20;6.30;;;21.50;90.40;;;;;;6247429;23;20000;-73
2022/05/17 05:46:31;;;;;;;6.30;5.70;;;21.50;90.40;;;;;;6099791;23;20021;-74
2022/05/17 05:52:37;;;;;;;5.93;5.40;;;21.50;90.50;;;;;;6245549;23;20008;-77
2022/05/17 05:58:56;;;;;;;5.82;5.32;;;21.60;90.70;;;;;;6125369;23;20010;-77
2022/05/17 06:01:45;;;;;;;6.18;5.57;;;21.60;90.40;;;;;;6110605;23;20006;-77
2022/05/17 06:04:19;;;;;;;6.00;5.40;;;21.60;90.50;;;;;;6227901;22;20016;-77
2022/05/17 06:06:56;;;;;;;6.07;5.00;;;21.70;90.60;;;;;;6244851;23;20320;-77
2022/05/17 06:10:10;;;;;;;6.97;4.93;;;21.70;90.80;;;;;;6246240;23;20440;-77
2022/05/17 06:13:29;;;;;;;5.70;4.80;;;21.70;90.80;;;;;;6246204;22;20004;-77
2022/05/17 06:20:18;;;;;;;5.47;3.95;;;21.80;90.70;;;;;;6141396;22;20422;-77
2022/05/17 06:26:33;;;;;;;6.35;3.78;;;21.90;90.50;;;;;;6212781;23;20008;-77
2022/05/17 06:30:03;;;;;;;6.82;4.30;;;22.00;90.30;;;;;;6246635;23;20036;-77
2022/05/17 06:32:41;;;;;;;;;;;22.00;86.90;;;;;;6102055;23;20092;-78
2022/05/17 06:38:29;;;;;;;3.40;2.42;;;22.00;86.30;;;;;;6125786;23;20065;-78
2022/05/17 06:41:04;;;;;;;3.55;2.63;;;22.10;85.60;;;;;;6196256;23;20108;-78
2022/05/17 06:43:40;;;;;;;3.72;2.40;;;22.10;86.30;;;;;;6245745;23;20004;-78
2022/05/17 06:46:13;;;;;;;4.35;2.90;;;22.20;86.40;;;;;;6245653;23;20004;-78
2022/05/17 06:48:46;;;;;;;4.03;2.65;;;22.20;86.50;;;;;;6246053;23;20011;-78
2022/05/17 06:54:45;;;;;;;3.22;2.33;;;22.30;85.80;;;;;;6244380;23;20008;-77
2022/05/17 06:58:03;;;;;;;;;;;22.40;86.30;;;;;;6241476;23;20008;-77
2022/05/17 07:00:20;;;;;;;4.82;2.30;;;22.40;86.20;;;;;;6232895;23;19899;-78
2022/05/17 07:06:40;;;;;;;3.35;2.20;;;22.50;86.10;;;;;;6246781;23;20085;-78
2022/05/17 07:09:13;;;;;;;3.38;2.85;;;22.60;85.10;;;;;;6246532;23;20008;-78
2022/05/17 07:15:11;;;;;;;3.20;2.20;;;22.70;84.00;;;;;;6247391;23;20095;-78
2022/05/17 07:20:47;;;;;;;2.97;2.50;;;22.90;83.70;;;;;;6245737;23;20088;-78
2022/05/17 07:23:38;;;;;;;3.58;2.40;;;22.90;83.10;;;;;;6245371;23;20007;-78
2022/05/17 07:26:08;;;;;;;3.10;2.72;;;22.90;82.80;;;;;;6245328;23;20039;-74
2022/05/17 07:28:59;;;;;;;3.83;2.58;;;23.00;83.20;;;;;;6245787;22;20030;-74
2022/05/17 07:32:16;;;;;;;3.03;2.10;;;23.10;81.80;;;;;;6245827;22;20004;-74
2022/05/17 07:34:47;;;;;;;3.78;2.10;;;23.10;80.60;;;;;;6128347;23;20013;-74
2022/05/17 07:37:18;;;;;;;2.78;2.05;;;23.10;80.80;;;;;;6128005;23;20451;-74
2022/05/17 07:39:49;;;;;;;3.13;2.30;;;23.20;80.30;;;;;;6206011;23;20074;-74
2022/05/17 07:42:26;;;;;;;2.78;2.20;;;23.30;80.40;;;;;;6244966;23;20419;-74
2022/05/17 07:44:58;;;;;;;3.65;2.20;;;23.40;79.70;;;;;;6244494;23;20143;-74
2022/05/17 07:47:41;;;;;;;2.58;2.15;;;23.40;79.10;;;;;;6244662;23;20008;-74
2022/05/17 07:50:11;;;;;;;2.50;1.90;;;23.50;78.30;;;;;;6243831;23;20346;-74
2022/05/17 07:52:39;;;;;;;2.72;2.20;;;23.50;78.30;;;;;;6219191;23;20084;-74
2022/05/17 07:55:47;;;;;;;3.28;2.60;;;23.60;78.20;;;;;;6242278;23;20011;-74
2022/05/17 07:58:34;;;;;;;;;;;;;;;;;;;;;
2022/05/17 08:01:06;;;;;;;3.58;2.20;;;23.60;78.00;;;;;;6245627;23;20079;-74
2022/05/17 08:03:42;;;;;;;3.78;2.47;;;23.60;77.90;;;;;;6244163;23;20011;-74
2022/05/17 08:06:12;;;;;;;2.22;2.03;;;23.70;77.60;;;;;;6245805;22;20012;-75
2022/05/17 08:08:43;;;;;;;2.08;1.80;;;23.70;77.50;;;;;;6219152;23;20015;-74
2022/05/17 08:11:26;;;;;;;3.60;1.98;;;23.80;77.10;;;;;;6217120;23;20078;-74
2022/05/17 08:13:53;;;;;;;2.35;2.13;;;23.80;77.40;;;;;;6219078;23;20369;-75
2022/05/17 08:16:19;;;;;;;2.58;2.05;;;23.90;77.80;;;;;;6245986;23;20004;-75
2022/05/17 08:18:49;;;;;;;5.00;2.80;;;24.00;77.60;;;;;;6218782;23;20000;-75
2022/05/17 08:21:21;;;;;;;6.97;3.50;;;23.90;74.10;;;;;;6218788;23;20338;-75
2022/05/17 08:24:00;;;;;;;2.92;2.00;;;23.90;74.20;;;;;;6194722;23;20008;-75
2022/05/17 08:29:17;;;;;;;4.38;2.40;;;24.00;76.00;;;;;;6245945;23;20174;-74
2022/05/17 08:33:14;;;;;;;2.77;2.30;;;24.10;75.80;;;;;;6218572;23;20043;-74
2022/05/17 08:34:30;;;;;;;5.93;1.95;;;24.20;75.10;;;;;;6245769;23;20011;-75
2022/05/17 08:36:57;;;;;;;5.63;2.20;;;24.40;75.90;;;;;;6218745;23;20039;-75
2022/05/17 08:39:31;;;;;;;2.53;1.85;;;24.40;75.70;;;;;;6245567;23;20329;-75
2022/05/17 08:42:17;;;;;;;3.05;1.80;;;24.60;75.30;;;;;;6219974;23;20000;-74
2022/05/17 08:45:01;;;;;;;3.30;2.30;;;24.70;73.70;;;;;;6220845;23;20001;-74
2022/05/17 08:48:07;;;;;;;2.10;1.73;;;24.70;72.50;;;;;;6229546;23;20012;-78
2022/05/17 08:51:06;;;;;;;3.72;2.13;;;24.80;73.50;;;;;;6102688;23;20428;-80
2022/05/17 08:54:17;;;;;;;4.78;3.05;;;24.80;72.70;;;;;;6222296;23;20016;-79
2022/05/17 08:57:44;;;;;;;3.95;2.78;;;24.90;73.30;;;;;;6217826;23;20015;-79
2022/05/17 09:00:24;;;;;;;2.92;2.33;;;25.00;72.20;;;;;;6221244;23;20010;-80
2022/05/17 09:03:09;;;;;;;3.47;2.20;;;25.10;71.80;;;;;;6222044;23;20004;-79
2022/05/17 09:06:04;;;;;;;5.00;2.97;;;25.20;72.40;;;;;;6238351;23;20012;-79
2022/05/17 09:08:49;;;;;;;3.85;2.63;;;25.30;72.70;;;;;;6187679;23;20015;-79
2022/05/17 09:11:46;;;;;;;;;;;;;;;;;;;;;
2022/05/17 09:14:44;;;;;;;3.05;2.30;;;25.40;74.30;;;;;;6259488;22;20028;-85
2022/05/17 09:17:26;;;;;;;6.00;2.97;;;25.50;74.40;;;;;;6255873;23;20062;-85
2022/05/17 09:20:02;;;;;;;13.15;6.63;;;25.60;73.60;;;;;;6257541;23;20057;-85
2022/05/17 09:22:32;;;;;;;8.65;5.43;;;25.70;74.40;;;;;;6245523;23;20009;-75
2022/05/17 09:24:59;;;;;;;;;;;25.80;74.70;;;;;;6247932;22;20438;-74
2022/05/17 09:27:40;;;;;;;6.65;4.63;;;25.80;74.40;;;;;;6245828;23;19992;-74
2022/05/17 09:30:34;;;;;;;10.98;5.57;;;25.90;74.40;;;;;;6245320;23;20315;-75
2022/05/17 09:33:14;;;;;;;4.95;4.22;;;26.00;73.90;;;;;;6244350;22;20430;-75
2022/05/17 09:35:55;;;;;;;5.68;3.97;;;26.10;73.70;;;;;;6249567;23;20004;-74
2022/05/17 09:38:32;;;;;;;5.38;3.92;;;26.10;72.60;;;;;;6246846;23;20010;-75
2022/05/17 09:41:02;;;;;;;4.57;3.92;;;26.10;73.40;;;;;;6245278;23;20008;-75
2022/05/17 09:43:50;;;;;;;8.10;4.43;;;26.20;72.60;;;;;;6247367;22;20028;-75
2022/05/17 09:46:27;;;;;;;5.72;4.38;;;26.30;73.10;;;;;;6245859;23;20008;-78
2022/05/17 09:54:48;;;;;;;5.20;4.03;;;26.80;72.90;;;;;;6248060;23;20090;-78
2022/05/17 09:57:29;;;;;;;5.07;3.70;;;26.90;72.60;;;;;;6246613;23;20008;-78
2022/05/17 10:00:12;;;;;;;5.18;3.58;;;27.00;72.50;;;;;;6247630;23;20004;-78
2022/05/17 10:03:00;;;;;;;5.38;4.47;;;27.20;72.60;;;;;;6245760;23;20008;-77
2022/05/17 10:05:45;;;;;;;5.20;4.50;;;27.30;72.80;;;;;;6247236;22;20004;-78
2022/05/17 10:08:18;;;;;;;4.38;3.80;;;27.40;72.30;;;;;;6246911;23;20031;-78
2022/05/17 10:11:00;;;;;;;5.78;4.15;;;27.50;72.20;;;;;;6246621;23;20004;-75
2022/05/17 10:13:45;;;;;;;4.28;3.72;;;27.60;72.00;;;;;;6219779;23;20453;-75
2022/05/17 10:16:19;;;;;;;4.65;3.47;;;27.70;71.70;;;;;;6219289;23;20093;-75
2022/05/17 10:19:15;;;;;;;4.97;4.15;;;27.80;71.60;;;;;;6220064;23;20406;-75
2022/05/17 10:22:04;;;;;;;4.55;3.75;;;27.90;71.30;;;;;;6219785;23;20007;-74
2022/05/17 10:24:49;;;;;;;7.95;5.45;;;28.00;71.10;;;;;;6220402;23;20000;-75
2022/05/17 10:27:29;;;;;;;7.30;3.90;;;28.10;70.70;;;;;;6219850;23;20119;-74
2022/05/17 10:30:17;;;;;;;5.38;4.05;;;28.30;70.50;;;;;;6247164;23;20073;-75
2022/05/17 10:32:50;;;;;;;4.07;3.63;;;28.30;70.30;;;;;;6219123;23;20011;-75
2022/05/17 10:35:49;;;;;;;5.18;3.78;;;28.40;70.30;;;;;;6219244;23;20008;-75
2022/05/17 10:38:27;;;;;;;5.03;3.88;;;28.50;69.70;;;;;;6246364;23;20008;-74
2022/05/17 10:40:55;;;;;;;4.35;2.90;;;28.60;69.00;;;;;;6196055;23;20004;-74
2022/05/17 10:43:33;;;;;;;3.85;3.15;;;28.70;69.30;;;;;;6219451;23;20010;-74
2022/05/17 10:46:19;;;;;;;6.32;3.05;;;28.80;69.00;;;;;;6219907;23;20000;-77
2022/05/17 10:49:01;;;;;;;3.30;2.60;;;28.90;68.70;;;;;;6220226;23;20087;-78
2022/05/17 10:51:33;;;;;;;3.47;2.50;;;29.00;68.10;;;;;;6220364;23;20009;-78
2022/05/17 10:54:06;;;;;;;4.10;2.88;;;29.10;68.10;;;;;;6247282;23;20008;-78
2022/05/17 10:56:52;;;;;;;3.15;2.55;;;29.20;68.10;;;;;;6220149;23;20040;-78
2022/05/17 10:59:36;;;;;;;5.07;2.90;;;29.40;67.90;;;;;;6219934;23;20054;-78
2022/05/17 11:02:27;;;;;;;3.13;2.83;;;29.50;67.20;;;;;;6246942;23;20078;-78
2022/05/17 11:05:36;;;;;;;3.35;2.47;;;29.60;66.50;;;;;;6228261;23;20016;-79
2022/05/17 11:08:15;;;;;;;4.13;3.47;;;29.70;66.50;;;;;;6233863;23;20032;-79
2022/05/17 11:11:00;;;;;;;3.88;3.35;;;29.90;66.00;;;;;;6244766;23;20008;-77
2022/05/17 11:13:46;;;;;;;5.10;3.03;;;30.00;65.60;;;;;;6244879;23;20039;-78
2022/05/17 11:16:49;;;;;;;5.78;3.05;;;30.10;65.50;;;;;;6245004;23;20061;-78
2022/05/17 11:19:43;;;;;;;3.55;2.67;;;30.30;65.20;;;;;;6246217;23;20008;-78
2022/05/17 11:22:45;;;;;;;5.60;3.00;;;30.40;64.10;;;;;;6246526;23;20024;-78
2022/05/17 11:25:30;;;;;;;4.57;3.15;;;30.60;63.90;;;;;;6186116;23;20488;-77
2022/05/17 11:28:33;;;;;;;3.92;3.08;;;30.90;62.30;;;;;;6244835;23;20008;-78
2022/05/17 11:31:18;;;;;;;4.15;3.65;;;31.20;62.70;;;;;;6246485;22;20475;-77
2022/05/17 11:33:44;;;;;;;5.57;3.72;;;31.60;62.20;;;;;;6246701;23;20007;-77
2022/05/17 11:36:33;;;;;;;6.43;3.20;;;32.00;61.10;;;;;;6244835;23;20069;-77
2022/05/17 11:39:03;;;;;;;4.90;2.90;;;32.40;60.50;;;;;;6244342;22;20008;-75
2022/05/17 11:41:45;;;;;;;4.00;3.28;;;32.70;60.00;;;;;;6245785;22;20004;-76
2022/05/17 11:44:19;;;;;;;4.65;3.40;;;33.10;57.80;;;;;;6242629;23;20047;-76
2022/05/17 11:46:55;;;;;;;6.68;4.05;;;33.30;58.30;;;;;;6246308;22;19996;-75
2022/05/17 11:49:41;;;;;;;4.47;3.78;;;33.50;55.70;;;;;;6243295;23;20004;-75
2022/05/17 11:52:10;;;;;;;8.25;4.50;;;33.60;57.00;;;;;;6244390;23;20015;-78
2022/05/17 11:54:54;;;;;;;8.25;4.82;;;33.70;55.30;;;;;;6245956;22;20058;-78
2022/05/17 11:57:27;;;;;;;5.28;4.50;;;33.90;56.30;;;;;;6270017;22;20091;-77
2022/05/17 12:00:09;;;;;;;6.43;4.18;;;34.00;56.00;;;;;;6246409;22;20047;-78
2022/05/17 12:02:43;;;;;;;5.28;4.65;;;34.00;53.90;;;;;;6245639;23;20007;-79
2022/05/17 12:05:43;;;;;;;6.63;4.13;;;34.00;53.80;;;;;;6235789;23;20008;-79
2022/05/17 12:08:32;;;;;;;6.25;4.63;;;34.10;53.10;;;;;;6250042;23;20000;-79
2022/05/17 12:11:11;;;;;;;7.78;3.67;;;34.10;53.00;;;;;;6221145;23;20035;-79
2022/05/17 12:14:20;;;;;;;3.17;2.80;;;34.10;53.40;;;;;;6248386;23;20024;-79
2022/05/17 12:16:51;;;;;;;7.05;3.35;;;34.10;53.60;;;;;;6248383;23;20004;-79
2022/05/17 12:19:40;;;;;;;5.97;3.50;;;34.00;53.00;;;;;;6222312;23;20607;-79
2022/05/17 12:22:41;;;;;;;4.78;2.97;;;34.10;52.90;;;;;;6221698;23;20008;-79
2022/05/17 12:25:28;;;;;;;8.20;3.25;;;33.70;52.90;;;;;;6220363;23;20079;-79
2022/05/17 12:28:00;;;;;;;3.97;3.55;;;33.80;53.60;;;;;;6219040;23;20012;-79
2022/05/17 12:33:26;;;;;;;6.75;3.08;;;33.60;53.50;;;;;;6245299;23;20073;-77
2022/05/17 12:36:10;;;;;;;6.20;3.22;;;33.70;53.30;;;;;;6244027;23;20005;-77
2022/05/17 12:44:19;;;;;;;3.55;3.22;;;33.90;53.60;;;;;;6244788;23;20087;-78
2022/05/17 12:46:49;;;;;;;6.15;3.70;;;33.90;52.90;;;;;;6218169;23;20004;-78
2022/05/17 12:49:28;;;;;;;4.85;3.70;;;34.00;52.30;;;;;;6218500;23;20157;-79
2022/05/17 12:52:01;;;;;;;5.97;3.58;;;34.00;51.90;;;;;;6219412;23;20004;-78
2022/05/17 12:54:39;;;;;;;7.18;2.88;;;34.10;52.00;;;;;;6244870;23;20004;-79
2022/05/17 12:57:32;;;;;;;4.60;3.15;;;34.20;52.70;;;;;;6218052;23;20004;-79
2022/05/17 13:00:24;;;;;;;5.80;4.32;;;34.20;51.10;;;;;;6218476;23;20001;-78
2022/05/17 13:02:58;;;;;;;5.65;4.20;;;34.10;50.90;;;;;;6218388;23;20036;-78
2022/05/17 13:05:43;;;;;;;4.63;3.53;;;34.00;51.80;;;;;;6232541;23;20143;-79
2022/05/17 13:08:12;;;;;;;5.50;4.13;;;34.00;52.00;;;;;;6243592;23;20015;-78
2022/05/17 13:10:43;;;;;;;4.47;3.63;;;34.00;52.00;;;;;;6244408;22;20004;-78
2022/05/17 13:13:15;;;;;;;6.78;3.83;;;34.20;52.80;;;;;;6243328;23;20535;-79
2022/05/17 13:15:47;;;;;;;6.20;3.60;;;34.20;52.50;;;;;;6243478;23;20503;-79
2022/05/17 13:18:19;;;;;;;5.40;3.60;;;34.10;52.30;;;;;;6242922;23;20339;-79
2022/05/17 13:20:49;;;;;;;5.93;3.55;;;34.10;52.60;;;;;;6244563;22;20003;-79
2022/05/17 13:23:31;;;;;;;3.83;3.00;;;34.10;51.40;;;;;;6243108;23;20430;-79
2022/05/17 13:26:03;;;;;;;5.70;3.85;;;34.20;52.20;;;;;;6243352;23;20008;-79
2022/05/17 13:28:33;;;;;;;5.45;3.90;;;33.90;52.30;;;;;;6243978;23;20008;-78
2022/05/17 13:31:14;;;;;;;3.95;3.53;;;33.60;52.60;;;;;;6245401;22;20335;-77
2022/05/17 13:33:54;;;;;;;4.32;3.60;;;33.50;52.50;;;;;;6243960;23;20004;-78
2022/05/17 13:36:38;;;;;;;4.30;3.53;;;33.50;52.60;;;;;;6243732;23;20011;-78
2022/05/17 13:39:27;;;;;;;4.22;3.53;;;33.50;53.10;;;;;;6243901;23;20350;-78
2022/05/17 13:41:53;;;;;;;6.18;4.72;;;33.60;52.40;;;;;;6244042;23;20008;-78
2022/05/17 13:44:54;;;;;;;7.65;4.68;;;33.60;52.20;;;;;;6244909;23;20000;-79
2022/05/17 13:47:42;;;;;;;6.78;4.65;;;33.60;51.80;;;;;;6217594;22;20008;-79
2022/05/17 13:50:16;;;;;;;7.85;5.30;;;33.60;52.60;;;;;;6245917;23;20011;-76
2022/05/17 13:52:51;;;;;;;5.78;4.43;;;33.50;52.60;;;;;;6245361;23;20206;-78
2022/05/17 13:55:40;;;;;;;7.80;5.00;;;33.40;52.90;;;;;;6245403;23;20335;-77
2022/05/17 13:58:09;;;;;;;7.53;4.60;;;33.40;51.70;;;;;;6247084;22;20054;-76
2022/05/17 14:00:57;;;;;;;5.38;4.13;;;33.40;52.10;;;;;;6246017;23;20000;-76
2022/05/17 14:03:24;;;;;;;6.25;4.68;;;33.50;52.70;;;;;;6246705;22;20010;-76
2022/05/17 14:06:08;;;;;;;7.82;4.10;;;33.40;52.40;;;;;;6247242;22;20015;-76
2022/05/17 14:14:11;;;;;;;8.00;4.00;;;33.40;52.20;;;;;;6247413;23;20055;-76
2022/05/17 14:16:41;;;;;;;6.60;4.50;;;33.40;52.00;;;;;;6247335;23;20083;-76
2022/05/17 14:19:12;;;;;;;6.30;4.80;;;33.40;51.80;;;;;;6220404;23;20000;-76
2022/05/17 14:21:38;;;;;;;4.75;3.72;;;33.30;52.30;;;;;;6248540;23;20075;-75
2022/05/17 14:24:05;;;;;;;11.23;4.68;;;33.20;52.20;;;;;;6220567;23;20036;-76
2022/05/17 14:26:32;;;;;;;5.15;3.85;;;33.10;52.50;;;;;;6220763;23;20084;-76
2022/05/17 14:28:59;;;;;;;5.93;3.50;;;33.00;53.00;;;;;;6220105;23;20031;-76
2022/05/17 14:31:30;;;;;;;5.60;4.13;;;32.80;53.00;;;;;;6220321;23;20008;-76
2022/05/17 14:33:59;;;;;;;5.88;3.80;;;32.70;53.00;;;;;;6216560;23;20008;-76
2022/05/17 14:36:28;;;;;;;8.13;4.57;;;32.70;53.40;;;;;;6219778;23;20457;-77
2022/05/17 14:38:55;;;;;;;4.82;4.25;;;32.60;53.70;;;;;;6219470;23;20373;-76
2022/05/17 14:41:24;;;;;;;8.82;5.57;;;32.40;54.90;;;;;;6220044;23;20004;-76
2022/05/17 14:43:51;;;;;;;5.85;3.97;;;32.10;56.50;;;;;;6245051;23;20343;-76
2022/05/17 14:46:19;;;;;;;7.00;4.65;;;31.90;55.60;;;;;;6245655;23;20060;-76
2022/05/17 14:48:47;;;;;;;5.97;3.60;;;31.80;56.40;;;;;;6247041;23;20010;-76
2022/05/17 14:51:16;;;;;;;5.15;3.28;;;31.60;56.20;;;;;;6218293;23;20012;-76
2022/05/17 14:54:13;;;;;;;6.60;3.40;;;31.60;56.20;;;;;;6194545;23;20139;-76
2022/05/17 14:56:39;;;;;;;5.72;3.88;;;31.50;56.20;;;;;;6219099;23;20004;-76
2022/05/17 14:59:05;;;;;;;7.45;3.47;;;31.40;55.90;;;;;;6246402;23;20023;-75
2022/05/17 15:01:32;;;;;;;5.85;3.65;;;31.40;56.30;;;;;;6245565;23;20006;-76
2022/05/17 15:04:01;;;;;;;5.57;4.25;;;31.20;56.60;;;;;;6217612;22;20066;-75
2022/05/17 15:06:29;;;;;;;7.47;3.70;;;31.10;57.50;;;;;;6218884;23;20011;-76
2022/05/17 15:08:59;;;;;;;6.18;3.90;;;30.90;57.40;;;;;;6246440;23;20007;-76
2022/05/17 15:11:25;;;;;;;4.22;3.40;;;30.90;57.50;;;;;;6219265;23;20015;-78
2022/05/17 15:13:52;;;;;;;5.32;3.88;;;30.80;57.90;;;;;;6219073;23;20011;-76
2022/05/17 15:16:21;;;;;;;7.60;3.53;;;30.70;58.20;;;;;;6219073;23;20008;-75
2022/05/17 15:18:52;;;;;;;6.03;3.85;;;30.70;58.80;;;;;;6218301;23;20020;-75
2022/05/17 15:21:22;;;;;;;6.68;3.97;;;30.50;58.90;;;;;;6219240;23;20000;-76
2022/05/17 15:23:50;;;;;;;5.72;4.15;;;30.50;58.80;;;;;;6219467;23;20004;-75
2022/05/17 15:26:18;;;;;;;5.25;3.97;;;30.40;60.20;;;;;;6218047;23;20011;-76
2022/05/17 15:28:46;;;;;;;5.78;3.35;;;30.30;59.80;;;;;;6245607;23;20000;-76
2022/05/17 15:31:19;;;;;;;7.53;3.53;;;30.10;60.50;;;;;;6218730;23;20442;-75
2022/05/17 15:33:46;;;;;;;5.65;4.20;;;30.10;60.60;;;;;;6245017;23;20001;-75
2022/05/17 15:36:14;;;;;;;7.97;3.90;;;30.00;60.70;;;;;;6218716;23;20030;-76
2022/05/17 15:38:41;;;;;;;5.38;3.40;;;30.00;60.60;;;;;;6219348;23;20059;-75
2022/05/17 15:41:09;;;;;;;5.60;3.65;;;29.90;61.00;;;;;;6219709;23;20486;-75
2022/05/17 15:43:39;;;;;;;5.20;3.22;;;29.90;60.80;;;;;;6218871;23;20004;-76
2022/05/17 15:46:18;;;;;;;3.33;2.63;;;29.80;60.90;;;;;;6218226;23;20004;-78
2022/05/17 15:54:19;;;;;;;4.20;2.88;;;29.60;60.60;;;;;;6246093;23;20015;-75
2022/05/17 15:56:46;;;;;;;4.68;3.30;;;29.60;61.10;;;;;;6218942;23;20004;-75
2022/05/17 15:59:14;;;;;;;7.13;3.80;;;29.60;61.00;;;;;;6218679;23;20004;-75
2022/05/17 16:01:48;;;;;;;5.88;3.40;;;29.50;61.40;;;;;;6246081;23;20028;-75
2022/05/17 16:08:01;;;;;;;5.63;3.70;;;29.40;62.30;;;;;;6246281;23;20023;-75
2022/05/17 16:09:50;;;;;;;4.63;2.72;;;29.40;62.00;;;;;;6224268;23;20012;-75
2022/05/17 16:12:16;;;;;;;6.07;2.83;;;29.40;61.90;;;;;;6219658;23;20012;-75
2022/05/17 16:14:47;;;;;;;5.25;2.97;;;29.40;61.80;;;;;;6218979;23;20004;-75
2022/05/17 16:17:14;;;;;;;5.68;2.45;;;29.50;61.90;;;;;;6218094;23;20016;-75
2022/05/17 16:19:43;;;;;;;4.40;2.70;;;29.50;62.70;;;;;;6219942;23;20401;-75
2022/05/17 16:22:19;;;;;;;5.05;3.10;;;29.50;62.70;;;;;;6246419;23;20000;-75
2022/05/17 16:25:04;;;;;;;3.50;2.92;;;29.40;63.30;;;;;;6246471;23;20367;-75
2022/05/17 16:27:37;;;;;;;4.55;2.85;;;29.50;62.70;;;;;;6218846;23;20008;-75
2022/05/17 16:30:13;;;;;;;3.95;2.80;;;29.50;62.50;;;;;;6219281;23;20011;-76
2022/05/17 16:32:43;;;;;;;4.90;2.92;;;29.50;62.60;;;;;;6220089;23;20009;-75
2022/05/17 16:35:13;;;;;;;3.33;2.85;;;29.40;62.90;;;;;;6219689;23;20435;-75
2022/05/17 16:37:51;;;;;;;4.55;2.88;;;29.40;62.60;;;;;;6246232;23;20008;-75
2022/05/17 16:40:21;;;;;;;3.30;2.67;;;29.40;62.50;;;;;;6221294;23;20434;-75
2022/05/17 16:42:49;;;;;;;4.38;2.55;;;29.30;62.20;;;;;;6220033;23;20146;-76
2022/05/17 16:45:17;;;;;;;4.00;2.47;;;29.30;62.20;;;;;;6219604;23;20005;-75
2022/05/17 16:47:53;;;;;;;4.47;2.90;;;29.20;62.00;;;;;;6219289;23;20012;-75
2022/05/17 16:50:32;;;;;;;3.40;2.42;;;29.20;62.00;;;;;;6194142;23;20019;-75
2022/05/17 16:53:01;;;;;;;3.30;2.60;;;29.20;61.90;;;;;;6219468;23;20087;-75
2022/05/17 16:55:29;;;;;;;3.20;2.53;;;29.10;62.00;;;;;;6219430;23;20011;-75
2022/05/17 16:58:01;;;;;;;3.97;2.92;;;29.10;62.00;;;;;;6218902;23;20332;-75
2022/05/17 17:00:31;;;;;;;5.65;2.70;;;29.00;62.40;;;;;;6219647;23;20358;-76
2022/05/17 17:02:59;;;;;;;2.72;2.47;;;28.90;62.50;;;;;;6220777;23;20007;-75
2022/05/17 17:05:34;;;;;;;3.95;2.38;;;28.90;62.70;;;;;;6209043;23;20431;-75
2022/05/17 17:08:01;;;;;;;4.72;2.88;;;28.80;63.00;;;;;;6221987;23;20095;-78
2022/05/17 17:10:34;;;;;;;5.72;2.67;;;28.70;63.70;;;;;;6249906;22;20004;-78
2022/05/17 17:13:04;;;;;;;3.83;2.17;;;28.60;63.20;;;;;;6247818;23;20008;-78
2022/05/17 17:15:33;;;;;;;4.65;2.83;;;28.50;63.30;;;;;;6248687;23;20011;-78
2022/05/17 17:18:02;;;;;;;3.70;2.53;;;28.50;63.60;;;;;;6247913;23;20008;-78
2022/05/17 17:20:30;;;;;;;7.20;2.72;;;28.50;63.90;;;;;;6247873;23;20000;-78
2022/05/17 17:23:03;;;;;;;3.15;2.30;;;28.40;63.90;;;;;;6249826;22;20454;-78
2022/05/17 17:25:31;;;;;;;4.18;2.58;;;28.30;64.10;;;;;;6246957;23;20032;-78
2022/05/17 17:28:02;;;;;;;4.25;2.30;;;28.20;64.50;;;;;;6247362;23;20004;-78
2022/05/17 17:30:34;;;;;;;3.35;2.45;;;28.20;64.40;;;;;;6246198;23;20008;-78
2022/05/17 17:38:44;;;;;;;3.03;2.25;;;28.10;64.40;;;;;;6249172;23;20449;-78
2022/05/17 17:41:15;;;;;;;3.53;2.30;;;28.00;64.40;;;;;;6247079;23;20007;-78
2022/05/17 17:43:45;;;;;;;3.00;2.13;;;28.00;64.10;;;;;;6248331;23;20087;-78
2022/05/17 17:46:17;;;;;;;3.87;3.03;;;28.00;64.80;;;;;;6249345;23;20027;-78
2022/05/17 17:48:43;;;;;;;3.40;2.40;;;27.80;64.80;;;;;;6221822;23;20004;-78
2022/05/17 17:51:13;;;;;;;4.53;2.05;;;27.80;65.00;;;;;;6244735;23;20031;-78
2022/05/17 17:53:43;;;;;;;3.85;2.50;;;27.80;64.90;;;;;;6249501;22;20075;-78
2022/05/17 17:56:15;;;;;;;2.80;2.17;;;27.70;64.80;;;;;;6246766;23;20031;-78
2022/05/17 17:58:45;;;;;;;3.97;2.20;;;27.70;64.60;;;;;;6246992;23;20008;-78
2022/05/17 18:01:12;;;;;;;3.47;2.20;;;27.60;64.30;;;;;;6246131;22;20377;-75
2022/05/17 18:03:39;;;;;;;4.45;2.13;;;27.60;64.20;;;;;;6246013;23;20027;-75
2022/05/17 18:06:08;;;;;;;2.70;2.10;;;27.50;64.20;;;;;;6246567;23;20008;-75
2022/05/17 18:08:35;;;;;;;3.55;2.35;;;27.50;64.10;;;;;;6248781;23;20001;-74
2022/05/17 18:11:05;;;;;;;5.20;2.58;;;27.40;65.60;;;;;;6248659;22;20030;-75
2022/05/17 18:13:37;;;;;;;2.90;2.10;;;27.40;65.30;;;;;;6246148;23;20004;-75
2022/05/17 18:16:09;;;;;;;6.68;2.42;;;27.40;65.40;;;;;;6248567;22;20008;-75
2022/05/17 18:18:35;;;;;;;6.07;2.47;;;27.30;65.60;;;;;;6246432;23;20039;-75
2022/05/17 18:21:06;;;;;;;3.45;2.22;;;27.30;65.90;;;;;;6246584;23;20322;-75
2022/05/17 18:23:44;;;;;;;3.88;2.85;;;27.30;66.00;;;;;;6247293;22;20327;-75
2022/05/17 18:26:14;;;;;;;2.60;2.40;;;27.20;66.10;;;;;;6245863;23;20008;-75
2022/05/17 18:28:44;;;;;;;5.03;2.78;;;27.20;66.40;;;;;;6246595;23;20008;-75
2022/05/17 18:31:24;;;;;;;4.68;2.80;;;27.20;66.50;;;;;;6249386;22;20031;-75
2022/05/17 18:33:55;;;;;;;4.32;2.67;;;27.20;66.80;;;;;;6247176;23;20024;-74
2022/05/17 18:36:34;;;;;;;4.72;2.53;;;27.10;67.10;;;;;;6247159;23;20004;-75
2022/05/17 18:39:12;;;;;;;4.05;2.55;;;27.20;67.90;;;;;;6246811;23;20005;-75
2022/05/17 18:41:53;;;;;;;4.53;2.93;;;27.10;68.10;;;;;;6253775;23;20007;-94
2022/05/17 18:47:48;;;;;;;3.08;2.53;;;27.10;69.00;;;;;;6233336;22;20319;-91
2022/05/17 18:50:50;;;;;;;3.88;2.58;;;27.00;70.00;;;;;;6250573;22;20004;-76
2022/05/17 18:53:22;;;;;;;5.97;2.70;;;27.00;70.10;;;;;;6243703;23;20018;-79
2022/05/17 19:06:43;;;;;;;3.85;2.50;;;26.80;70.60;;;;;;6239086;22;20717;-76
2022/05/17 19:13:31;;;;;;;4.60;2.50;;;26.70;71.00;;;;;;6250482;23;20455;-80
2022/05/17 19:17:04;;;;;;;3.40;2.25;;;26.50;71.10;;;;;;6223217;23;20042;-80
2022/05/17 19:19:55;;;;;;;4.82;2.95;;;26.60;71.40;;;;;;6247986;23;20016;-76
2022/05/17 19:26:58;;;;;;;4.22;3.42;;;26.50;71.90;;;;;;6246979;23;20043;-79
2022/05/17 19:30:45;;;;;;;4.03;3.60;;;26.50;71.50;;;;;;6222685;23;20511;-79
2022/05/17 19:34:29;;;;;;;4.83;3.53;;;26.40;71.40;;;;;;6247058;23;20014;-79
2022/05/17 19:41:20;;;;;;;3.58;2.40;;;26.40;71.90;;;;;;6224855;23;20073;-77
2022/05/17 19:44:00;;;;;;;5.60;3.13;;;26.30;71.40;;;;;;6219846;23;20004;-76
2022/05/17 19:50:30;;;;;;;3.03;2.60;;;26.30;71.70;;;;;;6252255;23;20023;-76
2022/05/17 19:53:15;;;;;;;2.58;2.38;;;26.30;71.70;;;;;;6216527;23;20034;-76
2022/05/17 19:55:57;;;;;;;3.80;2.30;;;26.30;71.30;;;;;;6221886;23;20011;-76
2022/05/17 19:58:43;;;;;;;3.58;2.50;;;26.30;71.20;;;;;;6240383;23;20012;-75
2022/05/17 20:01:53;;;;;;;3.40;2.83;;;26.30;71.20;;;;;;6216833;23;20016;-76
2022/05/17 20:04:48;;;;;;;4.40;2.90;;;26.30;71.20;;;;;;6223147;22;20004;-76
2022/05/17 20:07:49;;;;;;;3.53;2.83;;;26.30;71.50;;;;;;6202902;23;20024;-75
2022/05/17 20:10:34;;;;;;;3.75;3.10;;;26.30;71.80;;;;;;6221930;23;20015;-79
2022/05/17 20:13:05;;;;;;;3.15;2.50;;;26.30;72.00;;;;;;6198061;23;20455;-79